Time;durP1;ratioP1;P1;durP2;ratioP2;P2;SDS_P1;SDS_P2;PMS_P1;PMS_P2;Temp;Humidity;BMP_temperature;BMP_pressure;BME280_temperature;BME280_humidity;BME280_pressure;Samples;Min_cycle;Max_cycle;Signal;HPM_P1;HPM_P2
2022/04/17 00:00:00;;;;;;;13.13;11.83;;;;;;;;;;5070063;28;24418;-50
2022/04/17 00:02:26;;;;;;;12.88;11.57;;;;;;;;;;5081850;28;24928;-50
2022/04/17 00:04:52;;;;;;;12.50;11.40;;;;;;;;;;5076024;28;24422;-51
2022/04/17 00:07:17;;;;;;;14.02;12.63;;;;;;;;;;5077685;28;24423;-50
2022/04/17 00:09:43;;;;;;;13.60;12.40;;;;;;;;;;5073321;28;24568;-50
2022/04/17 00:12:09;;;;;;;13.20;12.00;;;;;;;;;;5073627;28;24422;-50
2022/04/17 00:14:37;;;;;;;13.43;12.10;;;;;;;;;;5067164;28;24445;-50
2022/04/17 00:17:03;;;;;;;14.38;12.40;;;;;;;;;;5068171;28;24506;-51
2022/04/17 00:19:28;;;;;;;13.68;12.05;;;;;;;;;;5081855;28;24614;-50
2022/04/17 00:21:53;;;;;;;13.93;12.63;;;;;;;;;;5069996;28;24849;-51
2022/04/17 00:24:18;;;;;;;13.00;11.80;;;;;;;;;;5075097;28;24418;-51
2022/04/17 00:26:43;;;;;;;13.85;12.40;;;;;;;;;;5075655;28;24422;-50
2022/04/17 00:29:08;;;;;;;14.02;12.73;;;;;;;;;;5079718;28;26212;-50
2022/04/17 00:31:34;;;;;;;13.95;12.52;;;;;;;;;;5071456;28;24454;-50
2022/04/17 00:33:59;;;;;;;14.93;13.53;;;;;;;;;;5067475;28;24486;-50
2022/04/17 00:36:24;;;;;;;15.70;14.10;;;;;;;;;;5066524;28;24555;-49
2022/04/17 00:38:49;;;;;;;13.47;12.03;;;;;;;;;;5071560;28;24426;-50
2022/04/17 00:41:14;;;;;;;14.30;12.80;;;;;;;;;;5079547;28;24970;-49
2022/04/17 00:43:44;;;;;;;13.55;12.15;;;;;;;;;;5079311;28;24453;-49
2022/04/17 00:46:09;;;;;;;12.80;11.70;;;;;;;;;;5065814;28;24492;-49
2022/04/17 00:48:34;;;;;;;14.23;12.82;;;;;;;;;;5067912;28;24426;-50
2022/04/17 00:51:00;;;;;;;14.80;13.40;;;;;;;;;;5075644;28;24975;-49
2022/04/17 00:53:26;;;;;;;13.57;12.40;;;;;;;;;;5076435;28;24427;-50
2022/04/17 00:55:51;;;;;;;14.30;13.00;;;;;;;;;;5067452;28;24419;-49
2022/04/17 00:58:17;;;;;;;14.07;12.77;;;;;;;;;;5069970;28;24483;-49
2022/04/17 01:00:42;;;;;;;14.70;13.30;;;;;;;;;;5078711;28;24418;-49
2022/04/17 01:03:10;;;;;;;13.50;12.30;;;;;;;;;;5073618;28;24433;-49
2022/04/17 01:05:37;;;;;;;12.88;11.77;;;;;;;;;;5078311;28;24972;-49
2022/04/17 01:08:02;;;;;;;13.70;12.40;;;;;;;;;;5080639;28;24423;-49
2022/04/17 01:10:27;;;;;;;13.00;11.80;;;;;;;;;;5073110;28;24433;-49
2022/04/17 01:12:53;;;;;;;12.90;11.70;;;;;;;;;;5071732;28;24419;-49
2022/04/17 01:15:18;;;;;;;13.60;12.40;;;;;;;;;;5074048;28;24554;-50
2022/04/17 01:17:43;;;;;;;12.95;11.82;;;;;;;;;;5077067;28;24422;-50
2022/04/17 01:20:10;;;;;;;13.65;12.45;;;;;;;;;;5071656;28;24427;-50
2022/04/17 01:22:35;;;;;;;13.35;12.25;;;;;;;;;;5078889;28;24919;-50
2022/04/17 01:27:44;;;;;;;13.70;12.40;;;;;;;;;;5083666;28;24413;-50
2022/04/17 01:30:10;;;;;;;12.27;11.18;;;;;;;;;;5070387;28;24430;-49
2022/04/17 01:32:35;;;;;;;12.70;11.70;;;;;;;;;;5073766;28;24423;-50
2022/04/17 01:35:00;;;;;;;13.00;11.80;;;;;;;;;;5067103;28;24472;-49
2022/04/17 01:37:25;;;;;;;13.60;12.30;;;;;;;;;;5082342;28;24427;-49
2022/04/17 01:39:51;;;;;;;13.73;12.35;;;;;;;;;;5073922;28;24468;-49
2022/04/17 01:42:16;;;;;;;12.68;11.68;;;;;;;;;;5072927;28;24423;-49
2022/04/17 01:44:41;;;;;;;12.10;11.00;;;;;;;;;;5071130;28;24871;-49
2022/04/17 01:47:06;;;;;;;12.98;11.88;;;;;;;;;;5075764;28;24484;-49
2022/04/17 01:49:32;;;;;;;12.83;11.73;;;;;;;;;;5082124;28;24433;-49
2022/04/17 01:51:57;;;;;;;13.00;11.80;;;;;;;;;;5083900;28;24990;-49
2022/04/17 01:54:24;;;;;;;13.10;11.90;;;;;;;;;;5076833;28;24835;-49
2022/04/17 01:56:49;;;;;;;13.77;12.47;;;;;;;;;;5074266;28;24475;-50
2022/04/17 01:59:15;;;;;;;13.10;11.90;;;;;;;;;;5080660;28;24426;-49
2022/04/17 02:01:40;;;;;;;13.27;12.07;;;;;;;;;;5073743;28;24430;-49
2022/04/17 02:04:07;;;;;;;12.73;11.73;;;;;;;;;;5084653;28;24475;-49
2022/04/17 02:06:32;;;;;;;14.40;13.20;;;;;;;;;;5074218;28;24834;-49
2022/04/17 02:08:57;;;;;;;13.80;12.70;;;;;;;;;;5070196;28;24957;-50
2022/04/17 02:11:24;;;;;;;13.53;12.43;;;;;;;;;;5072864;28;24495;-50
2022/04/17 02:13:49;;;;;;;13.65;12.45;;;;;;;;;;5073979;28;24443;-50
2022/04/17 02:16:17;;;;;;;13.90;12.63;;;;;;;;;;5077208;28;24441;-49
2022/04/17 02:18:43;;;;;;;14.70;13.30;;;;;;;;;;5080341;28;24425;-49
2022/04/17 02:21:08;;;;;;;13.90;12.55;;;;;;;;;;5071562;28;24419;-50
2022/04/17 02:23:34;;;;;;;13.10;12.00;;;;;;;;;;5075836;28;24992;-49
2022/04/17 02:26:00;;;;;;;12.43;11.43;;;;;;;;;;5074154;28;24423;-50
2022/04/17 02:28:25;;;;;;;12.60;11.50;;;;;;;;;;5074063;28;24483;-50
2022/04/17 02:30:50;;;;;;;12.60;11.40;;;;;;;;;;5067764;28;24474;-50
2022/04/17 02:33:15;;;;;;;12.37;11.27;;;;;;;;;;5067064;28;24423;-50
2022/04/17 02:35:41;;;;;;;12.77;11.55;;;;;;;;;;5068152;28;24471;-50
2022/04/17 02:38:06;;;;;;;13.07;11.97;;;;;;;;;;5070737;28;24819;-50
2022/04/17 02:40:34;;;;;;;12.05;11.05;;;;;;;;;;5067892;28;24441;-49
2022/04/17 02:42:59;;;;;;;12.27;11.18;;;;;;;;;;5077445;28;24584;-50
2022/04/17 02:45:26;;;;;;;12.80;11.70;;;;;;;;;;5076326;28;24505;-50
2022/04/17 02:47:51;;;;;;;13.07;12.00;;;;;;;;;;5073214;28;24924;-50
2022/04/17 02:50:17;;;;;;;12.95;11.82;;;;;;;;;;5072555;28;24894;-50
2022/04/17 02:52:42;;;;;;;12.70;11.60;;;;;;;;;;5082466;28;24441;-51
2022/04/17 02:55:08;;;;;;;12.70;11.60;;;;;;;;;;5070284;28;24414;-50
2022/04/17 02:57:33;;;;;;;12.60;11.50;;;;;;;;;;5073817;28;24427;-51
2022/04/17 02:59:58;;;;;;;13.20;12.00;;;;;;;;;;5072358;28;24433;-50
2022/04/17 03:07:52;;;;;;;13.30;12.00;;;;;;;;;;5077782;28;24479;-50
2022/04/17 03:10:17;;;;;;;11.90;10.90;;;;;;;;;;5077247;28;24426;-50
2022/04/17 03:12:42;;;;;;;12.23;11.20;;;;;;;;;;5080872;28;24425;-50
2022/04/17 03:15:08;;;;;;;12.30;11.30;;;;;;;;;;5073256;28;24430;-50
2022/04/17 03:17:33;;;;;;;11.95;10.90;;;;;;;;;;5070751;28;24573;-50
2022/04/17 03:19:58;;;;;;;12.20;11.10;;;;;;;;;;5067411;28;24427;-50
2022/04/17 03:22:24;;;;;;;13.20;12.00;;;;;;;;;;5080721;28;25183;-51
2022/04/17 03:24:49;;;;;;;12.30;11.20;;;;;;;;;;5081738;28;24448;-50
2022/04/17 03:27:14;;;;;;;11.50;10.60;;;;;;;;;;5074737;28;24866;-50
2022/04/17 03:29:39;;;;;;;12.82;11.65;;;;;;;;;;5078736;28;24427;-50
2022/04/17 03:32:05;;;;;;;12.52;11.40;;;;;;;;;;5070989;28;24438;-51
2022/04/17 03:34:42;;;;;;;12.50;11.40;;;;;;;;;;5070423;28;24423;-50
2022/04/17 03:37:08;;;;;;;12.60;11.50;;;;;;;;;;5070875;28;24429;-50
2022/04/17 03:39:33;;;;;;;12.45;11.35;;;;;;;;;;5074664;28;24426;-50
2022/04/17 03:41:58;;;;;;;12.30;11.20;;;;;;;;;;5076221;28;24438;-50
2022/04/17 03:44:26;;;;;;;11.60;10.70;;;;;;;;;;5075063;28;24426;-50
2022/04/17 03:46:52;;;;;;;11.95;10.95;;;;;;;;;;5076710;28;24436;-50
2022/04/17 03:49:17;;;;;;;11.93;10.93;;;;;;;;;;5066200;28;24431;-51
2022/04/17 03:51:42;;;;;;;13.10;11.80;;;;;;;;;;5073335;28;24441;-50
2022/04/17 03:54:07;;;;;;;13.10;11.90;;;;;;;;;;5066433;28;24438;-50
2022/04/17 03:56:33;;;;;;;12.98;11.82;;;;;;;;;;5068643;28;25059;-50
2022/04/17 03:58:58;;;;;;;12.48;11.38;;;;;;;;;;5079402;28;24422;-50
2022/04/17 04:01:26;;;;;;;13.13;12.02;;;;;;;;;;5073294;28;24418;-50
2022/04/17 04:03:51;;;;;;;12.25;11.15;;;;;;;;;;5075422;28;25046;-50
2022/04/17 04:06:17;;;;;;;13.40;12.30;;;;;;;;;;5073749;28;24560;-50
2022/04/17 04:08:42;;;;;;;12.80;11.70;;;;;;;;;;5071173;28;24422;-50
2022/04/17 04:11:08;;;;;;;13.10;12.00;;;;;;;;;;5072159;28;25022;-50
2022/04/17 04:13:33;;;;;;;12.02;11.00;;;;;;;;;;5074553;28;24751;-50
2022/04/17 04:15:58;;;;;;;11.70;10.70;;;;;;;;;;5063101;28;24529;-50
2022/04/17 04:18:23;;;;;;;12.05;10.95;;;;;;;;;;5067598;28;24418;-50
2022/04/17 04:20:49;;;;;;;12.83;11.60;;;;;;;;;;5069702;28;24972;-50
2022/04/17 04:23:14;;;;;;;13.30;12.10;;;;;;;;;;5079989;28;24859;-50
2022/04/17 04:25:39;;;;;;;12.88;11.77;;;;;;;;;;5075039;28;24450;-50
2022/04/17 04:30:48;;;;;;;13.15;11.90;;;;;;;;;;5071193;28;24469;-50
2022/04/17 04:33:13;;;;;;;12.40;11.30;;;;;;;;;;5079336;28;24997;-51
2022/04/17 04:35:39;;;;;;;12.20;11.10;;;;;;;;;;5073089;28;24422;-50
2022/04/17 04:38:05;;;;;;;12.13;11.13;;;;;;;;;;5073225;28;24567;-50
2022/04/17 04:40:30;;;;;;;12.80;11.60;;;;;;;;;;5069817;28;24906;-50
2022/04/17 04:42:55;;;;;;;12.40;11.30;;;;;;;;;;5077524;28;24977;-50
2022/04/17 04:48:04;;;;;;;12.30;11.30;;;;;;;;;;5067963;28;25014;-50
2022/04/17 04:50:30;;;;;;;12.90;11.70;;;;;;;;;;5068266;28;24439;-50
2022/04/17 04:52:55;;;;;;;12.80;11.70;;;;;;;;;;5075411;28;24418;-50
2022/04/17 04:55:21;;;;;;;12.90;11.70;;;;;;;;;;5079988;28;24434;-50
2022/04/17 04:57:46;;;;;;;12.85;11.75;;;;;;;;;;5070176;28;24544;-50
2022/04/17 05:00:13;;;;;;;12.87;11.77;;;;;;;;;;5070587;28;24789;-50
2022/04/17 05:02:38;;;;;;;12.70;11.70;;;;;;;;;;5074689;28;25156;-49
2022/04/17 05:05:05;;;;;;;13.50;12.30;;;;;;;;;;5085644;28;24544;-49
2022/04/17 05:07:30;;;;;;;12.90;11.80;;;;;;;;;;5066821;28;24429;-49
2022/04/17 05:09:55;;;;;;;12.70;11.60;;;;;;;;;;5079965;28;24410;-50
2022/04/17 05:12:20;;;;;;;12.85;11.75;;;;;;;;;;5078720;28;24414;-50
2022/04/17 05:14:46;;;;;;;13.40;12.20;;;;;;;;;;5073898;28;24817;-50
2022/04/17 05:17:11;;;;;;;14.23;12.82;;;;;;;;;;5069599;28;24411;-50
2022/04/17 05:19:38;;;;;;;13.03;11.70;;;;;;;;;;5074509;28;24443;-50
2022/04/17 05:22:10;;;;;;;13.30;12.00;;;;;;;;;;5080674;28;24535;-50
2022/04/17 05:24:35;;;;;;;12.90;11.80;;;;;;;;;;5074391;28;24434;-50
2022/04/17 05:27:03;;;;;;;13.52;12.35;;;;;;;;;;5071333;28;24847;-49
2022/04/17 05:29:28;;;;;;;13.10;11.90;;;;;;;;;;5078259;28;24422;-50
2022/04/17 05:31:54;;;;;;;12.57;11.38;;;;;;;;;;5082697;28;24495;-50
2022/04/17 05:34:19;;;;;;;12.20;11.10;;;;;;;;;;5073736;28;24431;-50
2022/04/17 05:36:44;;;;;;;13.00;11.80;;;;;;;;;;5070344;28;24422;-50
2022/04/17 05:39:09;;;;;;;12.50;11.50;;;;;;;;;;5074308;28;24424;-50
2022/04/17 05:41:34;;;;;;;14.80;13.30;;;;;;;;;;5075179;28;24774;-50
2022/04/17 05:44:00;;;;;;;12.75;11.65;;;;;;;;;;5077713;28;25027;-50
2022/04/17 05:46:30;;;;;;;13.57;12.37;;;;;;;;;;5077071;28;24476;-50
2022/04/17 05:48:57;;;;;;;12.80;11.60;;;;;;;;;;5074151;28;25548;-50
2022/04/17 05:51:22;;;;;;;12.27;11.07;;;;;;;;;;5070513;28;24773;-50
2022/04/17 05:53:47;;;;;;;14.45;13.05;;;;;;;;;;5070534;28;24441;-50
2022/04/17 05:56:12;;;;;;;12.67;11.57;;;;;;;;;;5077265;28;24407;-50
2022/04/17 05:58:38;;;;;;;12.10;11.10;;;;;;;;;;5077811;28;24433;-50
2022/04/17 06:01:03;;;;;;;12.43;11.32;;;;;;;;;;5082851;28;25044;-50
2022/04/17 06:03:29;;;;;;;12.57;11.40;;;;;;;;;;5073335;28;24994;-50
2022/04/17 06:05:54;;;;;;;13.70;12.30;;;;;;;;;;5073251;28;24480;-51
2022/04/17 06:08:19;;;;;;;13.18;12.07;;;;;;;;;;5078607;28;24992;-50
2022/04/17 06:10:44;;;;;;;13.02;11.93;;;;;;;;;;5074857;28;25006;-51
2022/04/17 06:13:09;;;;;;;13.73;12.43;;;;;;;;;;5076477;28;24487;-50
2022/04/17 06:15:34;;;;;;;14.65;13.25;;;;;;;;;;5082421;28;24403;-50
2022/04/17 06:18:00;;;;;;;13.60;12.43;;;;;;;;;;5075245;28;24426;-50
2022/04/17 06:20:25;;;;;;;13.80;12.60;;;;;;;;;;5068818;28;24479;-50
2022/04/17 06:22:50;;;;;;;12.80;11.60;;;;;;;;;;5076155;28;24410;-50
2022/04/17 06:25:15;;;;;;;13.00;11.90;;;;;;;;;;5078634;28;25300;-51
2022/04/17 06:27:42;;;;;;;13.20;12.00;;;;;;;;;;5070615;28;24426;-50
2022/04/17 06:30:12;;;;;;;12.82;11.63;;;;;;;;;;5078558;28;24573;-50
2022/04/17 06:32:37;;;;;;;13.40;12.20;;;;;;;;;;5071648;28;24495;-51
2022/04/17 06:35:03;;;;;;;13.80;12.50;;;;;;;;;;5075601;28;24426;-51
2022/04/17 06:37:28;;;;;;;13.70;12.40;;;;;;;;;;5061124;28;26206;-50
2022/04/17 06:39:55;;;;;;;13.27;12.17;;;;;;;;;;5067540;28;24956;-50
2022/04/17 06:42:20;;;;;;;13.60;12.30;;;;;;;;;;5076833;28;24414;-50
2022/04/17 06:44:45;;;;;;;13.32;12.02;;;;;;;;;;5074988;28;25313;-51
2022/04/17 06:47:10;;;;;;;12.87;11.57;;;;;;;;;;5074762;28;24429;-50
2022/04/17 06:49:35;;;;;;;12.45;11.15;;;;;;;;;;5068177;28;24833;-50
2022/04/17 06:52:01;;;;;;;12.38;11.27;;;;;;;;;;5066581;28;24504;-50
2022/04/17 06:54:26;;;;;;;13.32;12.00;;;;;;;;;;5071894;28;24527;-50
2022/04/17 06:56:51;;;;;;;13.52;12.32;;;;;;;;;;5070090;28;24991;-51
2022/04/17 06:59:17;;;;;;;13.10;11.90;;;;;;;;;;5073617;28;24432;-51
2022/04/17 07:01:43;;;;;;;12.40;11.30;;;;;;;;;;5070473;28;24418;-49
2022/04/17 07:04:08;;;;;;;13.07;11.87;;;;;;;;;;5069606;28;24765;-49
2022/04/17 07:06:33;;;;;;;13.20;12.00;;;;;;;;;;5065098;28;24737;-49
2022/04/17 07:08:58;;;;;;;12.20;11.20;;;;;;;;;;5067124;28;24490;-49
2022/04/17 07:11:23;;;;;;;11.32;10.10;;;;;;;;;;5065897;28;24468;-49
2022/04/17 07:13:48;;;;;;;10.40;9.50;;;;;;;;;;5065455;28;24547;-49
2022/04/17 07:16:14;;;;;;;9.70;8.80;;;;;;;;;;5069635;28;24410;-49
2022/04/17 07:18:39;;;;;;;11.33;10.13;;;;;;;;;;5085441;28;24414;-50
2022/04/17 07:21:05;;;;;;;11.40;10.30;;;;;;;;;;5078582;28;24426;-50
2022/04/17 07:23:30;;;;;;;10.50;9.50;;;;;;;;;;5065217;28;24409;-49
2022/04/17 07:25:57;;;;;;;10.73;9.73;;;;;;;;;;5072489;28;24492;-49
2022/04/17 07:28:23;;;;;;;10.25;9.25;;;;;;;;;;5086829;28;24938;-49
2022/04/17 07:30:48;;;;;;;10.93;9.85;;;;;;;;;;5077943;28;24451;-50
2022/04/17 07:33:16;;;;;;;10.50;9.60;;;;;;;;;;5065613;28;24421;-49
2022/04/17 07:35:41;;;;;;;10.65;9.65;;;;;;;;;;5067016;28;24525;-50
2022/04/17 07:38:06;;;;;;;11.40;10.40;;;;;;;;;;5066569;28;25098;-49
2022/04/17 07:40:32;;;;;;;10.37;9.27;;;;;;;;;;5066218;28;25040;-49
2022/04/17 07:42:58;;;;;;;9.80;8.90;;;;;;;;;;5066553;28;24444;-50
2022/04/17 07:45:24;;;;;;;9.90;9.10;;;;;;;;;;5065970;28;24414;-50
2022/04/17 07:47:50;;;;;;;9.47;8.47;;;;;;;;;;5066398;28;24385;-50
2022/04/17 07:50:16;;;;;;;9.20;8.40;;;;;;;;;;5066266;28;24929;-50
2022/04/17 07:52:41;;;;;;;9.18;8.32;;;;;;;;;;5066368;28;24944;-50
2022/04/17 07:55:11;;;;;;;10.45;9.45;;;;;;;;;;5066112;28;24545;-50
2022/04/17 08:00:21;;;;;;;10.40;9.40;;;;;;;;;;5066655;28;24433;-50
2022/04/17 08:02:50;;;;;;;8.98;8.18;;;;;;;;;;5065963;28;24401;-49
2022/04/17 08:05:16;;;;;;;9.60;8.60;;;;;;;;;;5065955;28;24419;-50
2022/04/17 08:07:41;;;;;;;9.00;8.20;;;;;;;;;;5066113;28;24415;-50
2022/04/17 08:10:06;;;;;;;8.30;7.50;;;;;;;;;;5066345;28;25319;-50
2022/04/17 08:12:31;;;;;;;9.10;8.30;;;;;;;;;;5065936;28;24481;-50
2022/04/17 08:14:56;;;;;;;9.10;8.30;;;;;;;;;;5066005;28;24415;-49
2022/04/17 08:17:21;;;;;;;8.48;7.68;;;;;;;;;;5081989;28;24463;-49
2022/04/17 08:19:46;;;;;;;8.38;7.50;;;;;;;;;;5086132;28;25050;-49
2022/04/17 08:22:12;;;;;;;7.50;6.90;;;;;;;;;;5086149;28;24490;-50
2022/04/17 08:24:37;;;;;;;8.00;7.30;;;;;;;;;;5086366;28;24795;-50
2022/04/17 08:27:02;;;;;;;8.65;7.85;;;;;;;;;;5086043;28;24397;-50
2022/04/17 08:29:27;;;;;;;8.40;7.60;;;;;;;;;;5086108;28;24425;-49
2022/04/17 08:31:52;;;;;;;8.67;7.87;;;;;;;;;;5086005;28;24444;-49
2022/04/17 08:34:18;;;;;;;8.47;7.73;;;;;;;;;;5086124;28;24429;-49
2022/04/17 08:36:43;;;;;;;9.30;8.40;;;;;;;;;;5086194;28;24390;-49
2022/04/17 08:39:08;;;;;;;9.50;8.60;;;;;;;;;;5085802;28;24421;-50
2022/04/17 08:41:33;;;;;;;8.53;7.63;;;;;;;;;;5086352;28;24744;-50
2022/04/17 08:43:58;;;;;;;8.60;7.90;;;;;;;;;;5086943;28;24403;-49
2022/04/17 08:46:24;;;;;;;8.27;7.57;;;;;;;;;;5090140;28;24451;-50
2022/04/17 08:48:49;;;;;;;7.73;7.03;;;;;;;;;;5089785;28;24386;-49
2022/04/17 08:51:14;;;;;;;7.30;6.70;;;;;;;;;;5090003;28;24409;-50
2022/04/17 08:53:40;;;;;;;6.60;6.00;;;;;;;;;;5090232;28;24478;-50
2022/04/17 08:56:05;;;;;;;7.03;6.33;;;;;;;;;;5090065;28;24746;-50
2022/04/17 08:58:30;;;;;;;6.53;6.03;;;;;;;;;;5090072;28;24422;-49
2022/04/17 09:00:55;;;;;;;6.50;6.00;;;;;;;;;;5090056;28;24753;-49
2022/04/17 09:03:21;;;;;;;6.82;6.13;;;;;;;;;;5090396;28;24399;-49
2022/04/17 09:05:47;;;;;;;6.20;5.60;;;;;;;;;;5089468;28;24509;-50
2022/04/17 09:08:16;;;;;;;6.47;5.88;;;;;;;;;;5090130;28;24394;-51
2022/04/17 09:10:50;;;;;;;7.30;6.60;;;;;;;;;;5089766;28;24455;-50
2022/04/17 09:13:24;;;;;;;7.70;7.00;;;;;;;;;;5089779;28;24826;-50
2022/04/17 09:15:49;;;;;;;6.13;5.63;;;;;;;;;;5089722;28;24418;-50
2022/04/17 09:18:17;;;;;;;6.03;5.50;;;;;;;;;;5089444;28;24386;-49
2022/04/17 09:20:46;;;;;;;5.30;4.80;;;;;;;;;;5089497;28;24490;-50
2022/04/17 09:23:12;;;;;;;4.30;4.00;;;;;;;;;;5089269;28;24784;-50
2022/04/17 09:25:37;;;;;;;3.47;3.17;;;;;;;;;;5088967;28;24390;-50
2022/04/17 09:28:03;;;;;;;3.28;2.90;;;;;;;;;;5090032;28;24791;-50
2022/04/17 09:30:32;;;;;;;2.60;2.40;;;;;;;;;;5081938;28;24519;-50
2022/04/17 09:32:58;;;;;;;2.50;2.30;;;;;;;;;;5069114;28;24792;-51
2022/04/17 09:35:23;;;;;;;3.10;2.47;;;;;;;;;;5069227;28;24775;-50
2022/04/17 09:37:49;;;;;;;3.00;2.65;;;;;;;;;;5068918;28;24698;-50
2022/04/17 09:40:18;;;;;;;3.10;2.60;;;;;;;;;;5069458;28;24387;-50
2022/04/17 09:42:43;;;;;;;2.85;2.65;;;;;;;;;;5069143;28;24429;-50
2022/04/17 09:45:08;;;;;;;3.00;2.60;;;;;;;;;;5069004;28;24399;-50
2022/04/17 09:47:34;;;;;;;2.97;2.78;;;;;;;;;;5068858;28;24959;-50
2022/04/17 09:50:08;;;;;;;3.00;2.70;;;;;;;;;;5068870;28;24440;-50
2022/04/17 09:52:40;;;;;;;3.17;2.80;;;;;;;;;;5068838;28;24825;-50
2022/04/17 09:55:05;;;;;;;3.20;2.80;;;;;;;;;;5068166;28;24466;-50
2022/04/17 09:57:31;;;;;;;3.10;2.75;;;;;;;;;;5068109;28;24429;-50
2022/04/17 10:00:04;;;;;;;3.20;2.90;;;;;;;;;;5068957;28;24403;-50
2022/04/17 10:02:30;;;;;;;3.78;3.08;;;;;;;;;;5068498;28;24402;-50
2022/04/17 10:04:55;;;;;;;3.07;2.77;;;;;;;;;;5068699;28;24395;-50
2022/04/17 10:07:22;;;;;;;3.07;2.80;;;;;;;;;;5068790;28;24995;-50
2022/04/17 10:09:47;;;;;;;2.85;2.65;;;;;;;;;;5068284;28;24407;-50
2022/04/17 10:12:19;;;;;;;3.13;2.83;;;;;;;;;;5068571;28;24494;-50
2022/04/17 10:14:45;;;;;;;3.50;3.00;;;;;;;;;;5068353;28;24454;-50
2022/04/17 10:17:10;;;;;;;3.08;2.60;;;;;;;;;;5085673;28;24398;-50
2022/04/17 10:19:35;;;;;;;3.70;3.30;;;;;;;;;;5088624;28;24477;-50
2022/04/17 10:22:03;;;;;;;3.57;3.00;;;;;;;;;;5088460;28;24402;-50
2022/04/17 10:24:28;;;;;;;2.90;2.70;;;;;;;;;;5088157;28;24416;-49
2022/04/17 10:26:54;;;;;;;3.30;3.00;;;;;;;;;;5088160;28;25080;-50
2022/04/17 10:29:34;;;;;;;3.40;3.10;;;;;;;;;;5088412;28;24749;-50
2022/04/17 10:32:14;;;;;;;3.37;3.07;;;;;;;;;;5088204;28;24414;-50
2022/04/17 10:34:51;;;;;;;2.80;2.60;;;;;;;;;;5088390;28;24490;-50
2022/04/17 10:37:36;;;;;;;3.30;3.00;;;;;;;;;;5088425;28;24436;-50
2022/04/17 10:40:02;;;;;;;3.23;2.93;;;;;;;;;;5088192;28;24874;-50
2022/04/17 10:42:35;;;;;;;3.63;2.80;;;;;;;;;;5088130;28;24943;-50
2022/04/17 10:45:01;;;;;;;3.08;2.78;;;;;;;;;;5088090;28;25251;-50
2022/04/17 10:47:27;;;;;;;3.38;3.08;;;;;;;;;;5088334;28;24405;-49
2022/04/17 10:49:53;;;;;;;2.83;2.47;;;;;;;;;;5087599;28;24482;-49
2022/04/17 10:52:29;;;;;;;3.20;2.90;;;;;;;;;;5087929;28;24441;-50
2022/04/17 10:54:55;;;;;;;3.00;2.80;;;;;;;;;;5088193;28;24422;-50
2022/04/17 10:57:24;;;;;;;2.60;2.40;;;;;;;;;;5087578;28;24444;-50
2022/04/17 10:59:49;;;;;;;3.15;2.40;;;;;;;;;;5087487;28;24980;-50
2022/04/17 11:02:17;;;;;;;2.97;2.60;;;;;;;;;;5087552;28;24489;-51
2022/04/17 11:04:54;;;;;;;2.42;2.22;;;;;;;;;;5087719;28;24402;-50
2022/04/17 11:07:23;;;;;;;3.65;2.15;;;;;;;;;;5086212;28;24981;-50
2022/04/17 11:10:03;;;;;;;2.40;2.20;;;;;;;;;;5087377;28;24417;-50
2022/04/17 11:12:29;;;;;;;2.80;2.30;;;;;;;;;;5087219;28;24398;-50
2022/04/17 11:14:57;;;;;;;2.80;2.60;;;;;;;;;;5087288;28;24442;-50
2022/04/17 11:17:23;;;;;;;3.80;2.60;;;;;;;;;;5087497;28;24455;-50
2022/04/17 11:19:48;;;;;;;2.80;2.23;;;;;;;;;;5086817;28;24920;-50
2022/04/17 11:22:15;;;;;;;2.30;2.10;;;;;;;;;;5087504;28;24405;-50
2022/04/17 11:25:02;;;;;;;2.53;2.30;;;;;;;;;;5087342;28;24433;-50
2022/04/17 11:27:27;;;;;;;2.40;1.75;;;;;;;;;;5087184;28;24403;-50
2022/04/17 11:30:03;;;;;;;2.50;1.90;;;;;;;;;;5143156;27;24476;-51
2022/04/17 11:32:29;;;;;;;2.67;2.40;;;;;;;;;;5121432;28;24508;-51
2022/04/17 11:34:55;;;;;;;3.00;2.20;;;;;;;;;;5124051;28;24501;-51
2022/04/17 11:37:21;;;;;;;2.40;2.17;;;;;;;;;;5123497;28;24398;-50
2022/04/17 11:39:46;;;;;;;2.50;2.30;;;;;;;;;;5122786;28;24400;-51
2022/04/17 11:42:11;;;;;;;3.13;2.60;;;;;;;;;;5123911;28;24833;-48
2022/04/17 11:44:39;;;;;;;2.70;2.50;;;;;;;;;;5124269;28;24854;-50
2022/04/17 11:47:04;;;;;;;2.50;2.30;;;;;;;;;;5123916;28;24986;-49
2022/04/17 11:49:32;;;;;;;2.03;1.90;;;;;;;;;;5124024;28;24424;-50
2022/04/17 11:52:09;;;;;;;3.63;2.45;;;;;;;;;;5124251;28;24510;-50
2022/04/17 11:54:34;;;;;;;2.93;2.43;;;;;;;;;;5124187;28;24438;-49
2022/04/17 11:57:00;;;;;;;2.40;2.20;;;;;;;;;;5123609;28;24374;-53
2022/04/17 11:59:25;;;;;;;2.50;2.00;;;;;;;;;;5124008;28;24480;-49
2022/04/17 12:02:06;;;;;;;2.73;2.23;;;;;;;;;;5123629;28;24523;-50
2022/04/17 12:04:32;;;;;;;2.40;2.20;;;;;;;;;;5123812;28;24386;-51
2022/04/17 12:06:57;;;;;;;2.70;2.40;;;;;;;;;;5123483;28;24398;-50
2022/04/17 12:09:22;;;;;;;2.80;2.60;;;;;;;;;;5124137;28;24486;-49
2022/04/17 12:11:49;;;;;;;2.30;2.10;;;;;;;;;;5123336;28;24404;-50
2022/04/17 12:14:26;;;;;;;2.53;2.27;;;;;;;;;;5123994;28;24934;-50
2022/04/17 12:16:51;;;;;;;2.03;1.83;;;;;;;;;;5102967;28;24486;-50
2022/04/17 12:19:16;;;;;;;2.40;2.20;;;;;;;;;;5097144;28;24394;-50
2022/04/17 12:21:41;;;;;;;2.20;2.00;;;;;;;;;;5082758;28;24497;-50
2022/04/17 12:24:06;;;;;;;2.10;1.90;;;;;;;;;;5082562;28;24442;-51
2022/04/17 12:26:31;;;;;;;2.88;2.30;;;;;;;;;;5082586;28;24924;-50
2022/04/17 12:28:57;;;;;;;2.50;2.30;;;;;;;;;;5082293;28;24476;-50
2022/04/17 12:31:22;;;;;;;2.33;2.10;;;;;;;;;;5082716;28;24722;-51
2022/04/17 12:33:47;;;;;;;2.43;2.20;;;;;;;;;;5082421;28;24503;-50
2022/04/17 12:36:13;;;;;;;4.40;2.53;;;;;;;;;;5082087;28;24438;-50
2022/04/17 12:38:40;;;;;;;2.55;2.35;;;;;;;;;;5082624;28;24391;-50
2022/04/17 12:41:18;;;;;;;3.70;2.47;;;;;;;;;;5070462;28;24391;-50
2022/04/17 12:43:45;;;;;;;3.65;2.30;;;;;;;;;;5068732;28;24405;-50
2022/04/17 12:46:21;;;;;;;2.50;2.30;;;;;;;;;;5068701;28;24944;-51
2022/04/17 12:48:47;;;;;;;2.30;2.10;;;;;;;;;;5068565;28;24434;-51
2022/04/17 12:51:12;;;;;;;2.20;2.00;;;;;;;;;;5068760;28;24628;-50
2022/04/17 12:53:41;;;;;;;2.92;2.40;;;;;;;;;;5068854;28;24383;-50
2022/04/17 12:56:07;;;;;;;2.60;2.40;;;;;;;;;;5068572;28;24757;-50
2022/04/17 12:58:52;;;;;;;3.00;2.50;;;;;;;;;;5068653;28;24744;-50
2022/04/17 13:01:19;;;;;;;2.60;2.40;;;;;;;;;;5068303;28;24448;-50
2022/04/17 13:03:45;;;;;;;2.80;2.50;;;;;;;;;;5068862;28;24387;-49
2022/04/17 13:06:17;;;;;;;2.90;2.30;;;;;;;;;;5068529;28;24486;-49
2022/04/17 13:08:42;;;;;;;2.85;2.55;;;;;;;;;;5068191;28;24418;-50
2022/04/17 13:11:19;;;;;;;3.20;2.40;;;;;;;;;;5068306;28;24398;-50
2022/04/17 13:13:50;;;;;;;2.58;2.38;;;;;;;;;;5068464;28;24386;-50
2022/04/17 13:16:15;;;;;;;3.72;2.45;;;;;;;;;;5083732;28;24399;-50
2022/04/17 13:18:41;;;;;;;2.80;2.60;;;;;;;;;;5088300;28;24405;-50
2022/04/17 13:21:07;;;;;;;2.40;2.20;;;;;;;;;;5088334;28;24447;-49
2022/04/17 13:23:33;;;;;;;2.30;2.10;;;;;;;;;;5088220;28;24480;-50
2022/04/17 13:25:58;;;;;;;2.30;2.10;;;;;;;;;;5088330;28;24497;-50
2022/04/17 13:28:23;;;;;;;3.00;2.70;;;;;;;;;;5088120;28;24537;-50
2022/04/17 13:30:49;;;;;;;3.10;2.80;;;;;;;;;;5088375;28;24383;-50
2022/04/17 13:33:15;;;;;;;2.70;2.50;;;;;;;;;;5088449;28;24390;-50
2022/04/17 13:35:40;;;;;;;2.43;2.23;;;;;;;;;;5087057;28;24515;-50
2022/04/17 13:38:11;;;;;;;3.33;2.20;;;;;;;;;;5086020;28;24477;-50
2022/04/17 13:40:36;;;;;;;2.30;2.10;;;;;;;;;;5087040;28;24414;-50
2022/04/17 13:43:02;;;;;;;2.17;2.00;;;;;;;;;;5087646;28;24760;-49
2022/04/17 13:45:27;;;;;;;2.43;2.23;;;;;;;;;;5087698;28;24406;-50
2022/04/17 13:47:52;;;;;;;2.40;2.20;;;;;;;;;;5087641;28;24542;-49
2022/04/17 13:50:17;;;;;;;2.77;2.00;;;;;;;;;;5087969;28;24447;-50
2022/04/17 13:52:42;;;;;;;2.40;2.20;;;;;;;;;;5086936;28;24439;-50
2022/04/17 13:55:09;;;;;;;4.67;2.30;;;;;;;;;;5087587;28;24387;-50
2022/04/17 13:57:34;;;;;;;2.88;2.47;;;;;;;;;;5087645;28;24385;-50
2022/04/17 13:59:59;;;;;;;3.53;2.90;;;;;;;;;;5087567;28;24382;-51
2022/04/17 14:02:25;;;;;;;2.50;2.30;;;;;;;;;;5087659;28;24391;-50
2022/04/17 14:04:50;;;;;;;2.23;2.10;;;;;;;;;;5087492;28;25005;-50
2022/04/17 14:07:15;;;;;;;2.60;2.10;;;;;;;;;;5087299;28;24386;-50
2022/04/17 14:09:41;;;;;;;2.50;2.30;;;;;;;;;;5087678;28;24425;-49
2022/04/17 14:12:08;;;;;;;2.40;2.20;;;;;;;;;;5087192;28;24404;-50
2022/04/17 14:14:34;;;;;;;2.55;2.30;;;;;;;;;;5087517;28;24760;-49
2022/04/17 14:16:59;;;;;;;2.30;2.10;;;;;;;;;;5087294;28;24385;-50
2022/04/17 14:19:24;;;;;;;2.40;2.20;;;;;;;;;;5087643;28;24414;-49
2022/04/17 14:21:49;;;;;;;1.93;1.80;;;;;;;;;;5087578;28;24402;-51
2022/04/17 14:24:14;;;;;;;2.40;2.20;;;;;;;;;;5087201;28;24390;-49
2022/04/17 14:26:40;;;;;;;1.90;1.80;;;;;;;;;;5087255;28;24951;-50
2022/04/17 14:29:05;;;;;;;1.80;1.70;;;;;;;;;;5086885;28;25317;-49
2022/04/17 14:31:30;;;;;;;2.30;2.10;;;;;;;;;;5087727;28;24383;-49
2022/04/17 14:33:55;;;;;;;2.10;1.90;;;;;;;;;;5087230;28;25184;-50
2022/04/17 14:36:21;;;;;;;2.60;2.40;;;;;;;;;;5086951;28;24442;-50
2022/04/17 14:38:46;;;;;;;2.60;2.33;;;;;;;;;;5087438;28;24460;-50